Time;durP1;ratioP1;P1;durP2;ratioP2;P2;SDS_P1;SDS_P2;PMS_P1;PMS_P2;Temp;Humidity;BMP_temperature;BMP_pressure;BME280_temperature;BME280_humidity;BME280_pressure;Samples;Min_cycle;Max_cycle;Signal;HPM_P1;HPM_P2
2023/08/31 00:01:33;;;;;;;28.67;19.35;;;16.60;99.90;;;;;;4997551;28;20115;-78
2023/08/31 00:04:00;;;;;;;28.70;20.75;;;16.60;99.90;;;;;;4998112;28;20073;-78
2023/08/31 00:06:29;;;;;;;36.80;21.80;;;16.60;99.90;;;;;;5000636;28;20041;-77
2023/08/31 00:08:57;;;;;;;27.63;21.25;;;16.60;99.90;;;;;;4995438;28;20056;-78
2023/08/31 00:11:26;;;;;;;24.75;19.38;;;16.50;99.90;;;;;;4997999;28;20395;-76
2023/08/31 00:13:53;;;;;;;23.50;18.23;;;16.50;99.90;;;;;;4997701;28;20078;-78
2023/08/31 00:16:26;;;;;;;24.38;17.88;;;16.50;99.90;;;;;;4996962;28;20121;-76
2023/08/31 00:18:54;;;;;;;22.27;16.02;;;16.50;99.90;;;;;;4996606;28;20038;-77
2023/08/31 00:21:22;;;;;;;19.08;14.60;;;16.50;99.90;;;;;;4999679;28;20421;-76
2023/08/31 00:23:51;;;;;;;19.13;14.90;;;16.40;99.90;;;;;;4998483;28;20418;-77
2023/08/31 00:26:19;;;;;;;23.83;19.20;;;16.40;99.90;;;;;;5014645;28;20100;-78
2023/08/31 00:28:49;;;;;;;26.38;19.55;;;16.30;99.90;;;;;;4998054;28;20124;-77
2023/08/31 00:31:17;;;;;;;26.63;20.50;;;16.10;99.90;;;;;;5000145;28;20516;-79
2023/08/31 00:33:45;;;;;;;32.35;22.60;;;15.90;99.90;;;;;;5024352;28;20038;-77
2023/08/31 00:36:13;;;;;;;32.17;22.35;;;15.90;99.90;;;;;;4997715;28;20045;-77
2023/08/31 00:38:41;;;;;;;33.55;22.23;;;15.90;99.90;;;;;;4996350;28;20045;-78
2023/08/31 00:41:11;;;;;;;28.70;21.52;;;15.90;99.90;;;;;;4996531;28;20039;-76
2023/08/31 00:43:38;;;;;;;24.25;17.77;;;15.90;99.90;;;;;;4999227;28;20038;-79
2023/08/31 00:46:06;;;;;;;54.30;20.52;;;16.00;99.90;;;;;;4999067;28;20054;-76
2023/08/31 00:48:34;;;;;;;24.35;18.77;;;16.00;99.90;;;;;;5000439;28;20042;-78
2023/08/31 00:51:02;;;;;;;25.45;19.92;;;16.00;99.90;;;;;;5002198;28;20406;-79
2023/08/31 00:53:31;;;;;;;28.02;20.58;;;16.00;99.90;;;;;;5003307;28;20131;-78
2023/08/31 00:56:02;;;;;;;26.10;19.75;;;16.00;99.90;;;;;;5019281;28;20381;-77
2023/08/31 00:58:31;;;;;;;29.00;19.88;;;16.00;99.90;;;;;;5001517;28;20051;-78
2023/08/31 01:01:08;;;;;;;25.80;18.73;;;16.00;99.90;;;;;;5000920;28;20064;-77
2023/08/31 01:03:44;;;;;;;29.23;20.30;;;16.10;99.90;;;;;;5014619;28;20092;-77
2023/08/31 01:06:17;;;;;;;27.58;19.52;;;16.10;99.90;;;;;;5023078;28;20081;-78
2023/08/31 01:08:54;;;;;;;28.73;17.70;;;16.10;99.90;;;;;;5001024;28;20149;-78
2023/08/31 01:11:31;;;;;;;28.77;19.27;;;16.10;99.90;;;;;;5002383;28;20168;-78
2023/08/31 01:14:08;;;;;;;26.75;20.33;;;16.00;99.90;;;;;;5001252;28;20046;-78
2023/08/31 01:16:36;;;;;;;29.13;19.80;;;16.00;99.90;;;;;;5009087;28;20056;-77
2023/08/31 01:19:09;;;;;;;27.15;19.45;;;16.00;99.90;;;;;;5004271;28;20092;-78
2023/08/31 01:21:42;;;;;;;26.02;18.70;;;16.00;99.90;;;;;;4998579;28;20046;-78
2023/08/31 01:24:12;;;;;;;26.27;17.90;;;16.00;99.90;;;;;;5015682;28;20038;-78
2023/08/31 01:26:41;;;;;;;25.02;18.08;;;15.90;99.90;;;;;;5018935;28;20049;-79
2023/08/31 01:29:08;;;;;;;27.55;17.88;;;15.80;99.90;;;;;;5002339;28;20048;-78
2023/08/31 01:31:43;;;;;;;24.08;18.58;;;15.90;99.90;;;;;;4999887;28;20406;-79
2023/08/31 01:34:11;;;;;;;23.48;17.67;;;15.90;99.90;;;;;;5003003;28;20129;-76
2023/08/31 01:36:45;;;;;;;27.35;17.20;;;15.80;99.90;;;;;;5012270;28;20033;-78
2023/08/31 01:39:20;;;;;;;23.88;17.40;;;15.80;99.90;;;;;;5022966;28;20081;-79
2023/08/31 01:41:55;;;;;;;23.13;17.95;;;15.80;99.90;;;;;;5022742;28;20062;-77
2023/08/31 01:44:23;;;;;;;22.67;18.38;;;15.80;99.90;;;;;;5015117;28;20070;-78
2023/08/31 01:47:06;;;;;;;25.70;18.33;;;15.80;99.90;;;;;;5002528;28;20052;-78
2023/08/31 01:49:38;;;;;;;26.13;20.27;;;15.70;99.90;;;;;;4996430;28;20126;-78
2023/08/31 01:52:06;;;;;;;26.08;17.90;;;15.70;99.90;;;;;;5002951;28;20042;-78
2023/08/31 01:54:37;;;;;;;26.73;18.75;;;15.70;99.90;;;;;;5005950;28;20041;-79
2023/08/31 01:57:06;;;;;;;24.25;18.13;;;15.70;99.90;;;;;;4996723;28;20058;-78
2023/08/31 01:59:34;;;;;;;24.23;18.50;;;15.70;99.90;;;;;;4995367;28;20072;-78
2023/08/31 02:02:02;;;;;;;26.58;17.23;;;15.70;99.90;;;;;;5014268;28;20494;-76
2023/08/31 02:04:29;;;;;;;23.80;16.92;;;15.70;99.90;;;;;;5022407;28;20444;-78
2023/08/31 02:06:58;;;;;;;24.13;17.65;;;15.70;99.90;;;;;;4995985;28;20049;-76
2023/08/31 02:09:26;;;;;;;24.60;16.77;;;15.70;99.90;;;;;;5010836;28;20045;-77
2023/08/31 02:11:55;;;;;;;25.30;18.30;;;15.70;99.90;;;;;;4999951;28;20042;-78
2023/08/31 02:14:22;;;;;;;24.20;18.35;;;15.70;99.90;;;;;;4997738;28;20374;-78
2023/08/31 02:16:50;;;;;;;27.38;19.45;;;15.70;99.90;;;;;;4997325;28;20573;-78
2023/08/31 02:19:18;;;;;;;27.67;20.25;;;15.80;99.90;;;;;;4998229;28;20046;-78
2023/08/31 02:21:46;;;;;;;30.45;22.13;;;15.70;99.90;;;;;;5000072;28;20124;-78
2023/08/31 02:24:14;;;;;;;28.95;20.25;;;15.60;99.90;;;;;;4999132;28;20038;-77
2023/08/31 02:26:42;;;;;;;26.35;20.50;;;15.70;99.90;;;;;;4998421;28;20043;-78
2023/08/31 02:29:11;;;;;;;31.13;22.33;;;15.70;99.90;;;;;;4999855;28;20044;-78
2023/08/31 02:31:38;;;;;;;31.75;22.25;;;15.60;99.90;;;;;;4996531;28;20108;-78
2023/08/31 02:34:06;;;;;;;31.40;21.70;;;15.60;99.90;;;;;;4999598;28;20974;-77
2023/08/31 02:36:34;;;;;;;28.10;21.15;;;15.70;99.90;;;;;;5002909;28;20054;-79
2023/08/31 02:39:01;;;;;;;26.80;19.48;;;15.60;99.90;;;;;;4997563;28;20081;-78
2023/08/31 02:41:29;;;;;;;26.83;18.70;;;15.60;99.90;;;;;;4998220;28;20039;-79
2023/08/31 02:43:56;;;;;;;23.00;18.42;;;15.60;99.90;;;;;;4999201;28;20050;-75
2023/08/31 02:46:25;;;;;;;26.45;18.33;;;15.50;99.90;;;;;;4998053;28;20053;-77
2023/08/31 02:48:53;;;;;;;31.10;19.00;;;15.50;99.90;;;;;;4997468;28;20506;-78
2023/08/31 02:51:20;;;;;;;28.25;19.33;;;15.50;99.90;;;;;;4994860;28;20516;-79
2023/08/31 02:53:48;;;;;;;25.33;17.55;;;15.40;99.90;;;;;;4994725;28;20092;-78
2023/08/31 02:56:16;;;;;;;26.05;17.08;;;15.50;99.90;;;;;;5001214;28;20121;-78
2023/08/31 02:58:43;;;;;;;25.52;16.15;;;15.40;99.90;;;;;;4995215;28;20121;-78
2023/08/31 03:01:12;;;;;;;28.52;17.00;;;15.40;99.90;;;;;;4997284;28;20045;-77
2023/08/31 03:03:45;;;;;;;26.65;17.58;;;15.30;99.90;;;;;;4997798;28;20420;-79
2023/08/31 03:06:13;;;;;;;25.23;16.88;;;15.30;99.90;;;;;;4997264;28;20154;-79
2023/08/31 03:08:41;;;;;;;28.42;17.92;;;15.30;99.90;;;;;;4993081;28;20038;-78
2023/08/31 03:11:09;;;;;;;28.63;16.55;;;15.30;99.90;;;;;;4996774;28;20039;-78
2023/08/31 03:13:37;;;;;;;31.80;16.13;;;15.40;99.90;;;;;;4991951;28;20038;-76
2023/08/31 03:16:05;;;;;;;22.50;15.18;;;15.30;99.90;;;;;;4998390;28;20053;-79
2023/08/31 03:18:32;;;;;;;27.13;16.10;;;15.30;99.90;;;;;;4997749;28;20070;-77
2023/08/31 03:21:01;;;;;;;26.67;16.17;;;15.30;99.90;;;;;;4999595;28;20042;-79
2023/08/31 03:23:31;;;;;;;24.77;13.35;;;15.30;99.90;;;;;;4996821;28;20121;-78
2023/08/31 03:25:58;;;;;;;22.27;14.45;;;15.30;99.90;;;;;;5020549;28;20106;-78
2023/08/31 03:28:27;;;;;;;19.33;12.85;;;15.20;99.90;;;;;;5002277;28;20041;-78
2023/08/31 03:30:58;;;;;;;24.60;15.85;;;15.20;99.90;;;;;;5007379;28;20130;-77
2023/08/31 03:33:27;;;;;;;26.48;18.15;;;15.10;99.90;;;;;;4999667;28;20042;-79
2023/08/31 03:36:04;;;;;;;25.67;17.55;;;15.10;99.90;;;;;;4998634;28;20046;-79
2023/08/31 03:38:32;;;;;;;27.45;14.43;;;15.00;99.90;;;;;;5012359;28;20062;-77
2023/08/31 03:41:01;;;;;;;19.70;13.63;;;15.00;99.90;;;;;;4996718;28;21018;-78
2023/08/31 03:43:29;;;;;;;16.00;12.70;;;15.00;99.90;;;;;;5013069;28;20104;-78
2023/08/31 03:45:57;;;;;;;18.92;11.77;;;15.00;99.90;;;;;;4996421;28;20067;-78
2023/08/31 03:48:25;;;;;;;19.73;12.98;;;15.00;99.90;;;;;;4994826;28;20104;-77
2023/08/31 03:50:54;;;;;;;18.63;12.80;;;15.00;99.90;;;;;;4995096;28;20042;-77
2023/08/31 03:53:25;;;;;;;18.33;12.75;;;15.00;99.90;;;;;;4998333;28;20121;-77
2023/08/31 03:55:57;;;;;;;17.95;12.95;;;15.00;99.90;;;;;;4999874;28;20053;-78
2023/08/31 03:58:25;;;;;;;19.27;12.60;;;14.90;99.90;;;;;;4997252;28;20053;-77
2023/08/31 04:00:55;;;;;;;18.15;12.82;;;14.90;99.90;;;;;;5000089;28;20069;-77
2023/08/31 04:03:23;;;;;;;25.95;13.27;;;14.90;99.90;;;;;;4999120;28;20376;-78
2023/08/31 04:05:55;;;;;;;16.90;12.60;;;14.90;99.90;;;;;;4994839;28;20532;-75
2023/08/31 04:08:24;;;;;;;17.08;11.68;;;14.80;99.90;;;;;;5022934;28;20117;-77
2023/08/31 04:10:52;;;;;;;16.50;12.07;;;14.70;99.90;;;;;;5001815;28;20050;-77
2023/08/31 04:13:21;;;;;;;18.10;12.00;;;14.70;99.90;;;;;;4994982;28;20065;-77
2023/08/31 04:15:49;;;;;;;18.23;11.10;;;14.80;99.90;;;;;;5022587;28;20525;-77
2023/08/31 04:18:17;;;;;;;13.07;10.18;;;14.80;99.90;;;;;;4999913;28;20052;-78
2023/08/31 04:20:51;;;;;;;11.20;9.30;;;14.90;99.90;;;;;;5001381;28;20629;-78
2023/08/31 04:23:18;;;;;;;10.68;8.63;;;15.00;99.90;;;;;;5017910;28;20042;-77
2023/08/31 04:25:48;;;;;;;12.85;9.70;;;15.00;99.90;;;;;;5000628;28;20159;-77
2023/08/31 04:28:15;;;;;;;14.60;9.57;;;15.00;99.90;;;;;;5002023;28;20046;-75
2023/08/31 04:30:44;;;;;;;16.83;8.23;;;15.00;99.90;;;;;;5012567;28;20042;-77
2023/08/31 04:33:12;;;;;;;13.05;7.53;;;15.00;99.90;;;;;;5017984;28;20393;-78
2023/08/31 04:35:40;;;;;;;12.48;7.85;;;15.10;99.90;;;;;;5024522;28;20072;-79
2023/08/31 04:38:07;;;;;;;12.70;8.60;;;15.10;99.90;;;;;;4999429;28;20128;-77
2023/08/31 04:40:36;;;;;;;15.60;11.25;;;15.10;99.90;;;;;;4998828;28;20581;-78
2023/08/31 04:43:05;;;;;;;35.67;12.57;;;15.00;99.90;;;;;;4999107;28;20034;-77
2023/08/31 04:45:33;;;;;;;30.00;13.35;;;15.10;99.90;;;;;;5001758;28;20046;-78
2023/08/31 04:48:01;;;;;;;12.82;9.60;;;15.00;99.90;;;;;;5000970;28;20095;-78
2023/08/31 04:50:28;;;;;;;18.50;11.35;;;15.10;99.90;;;;;;4999659;28;20054;-77
2023/08/31 04:52:56;;;;;;;17.15;10.60;;;15.20;99.90;;;;;;5007189;28;20057;-78
2023/08/31 04:55:25;;;;;;;19.95;10.90;;;15.20;99.90;;;;;;5022864;28;20060;-78
2023/08/31 04:57:52;;;;;;;14.07;8.80;;;15.30;99.90;;;;;;5019685;28;20046;-79
2023/08/31 05:00:21;;;;;;;12.82;9.80;;;15.30;99.90;;;;;;5020060;28;20117;-78
2023/08/31 05:02:51;;;;;;;15.15;10.63;;;15.20;99.90;;;;;;5002825;28;20671;-78
2023/08/31 05:05:19;;;;;;;13.82;9.00;;;15.20;99.90;;;;;;5020116;28;20053;-79
2023/08/31 05:07:46;;;;;;;13.75;9.18;;;15.30;99.90;;;;;;4998856;28;20038;-79
2023/08/31 05:10:14;;;;;;;14.35;8.85;;;15.40;99.90;;;;;;4998239;28;20493;-80
2023/08/31 05:12:41;;;;;;;17.00;10.45;;;15.60;99.90;;;;;;5001635;28;20041;-77
2023/08/31 05:15:10;;;;;;;14.10;10.45;;;15.60;99.90;;;;;;5000714;28;20050;-78
2023/08/31 05:17:39;;;;;;;11.98;9.68;;;15.60;99.90;;;;;;5003596;28;20048;-78
2023/08/31 05:20:09;;;;;;;13.80;9.95;;;15.70;99.90;;;;;;5004558;28;20046;-79
2023/08/31 05:22:37;;;;;;;17.35;11.05;;;15.70;99.90;;;;;;4997428;28;20042;-80
2023/08/31 05:25:05;;;;;;;18.17;12.13;;;15.90;99.90;;;;;;4996379;28;20075;-77
2023/08/31 05:27:33;;;;;;;11.43;8.95;;;16.00;99.90;;;;;;4997658;28;20042;-77
2023/08/31 05:30:01;;;;;;;11.73;9.25;;;16.10;99.90;;;;;;4998609;28;20149;-79
2023/08/31 05:32:30;;;;;;;13.32;8.57;;;16.20;99.90;;;;;;4999325;28;20053;-78
2023/08/31 05:34:59;;;;;;;11.20;8.68;;;16.20;99.90;;;;;;5011620;28;20056;-77
2023/08/31 05:37:26;;;;;;;12.98;10.38;;;16.30;99.90;;;;;;4997993;28;20050;-77
2023/08/31 05:39:54;;;;;;;13.52;9.23;;;16.20;99.90;;;;;;5000876;28;20092;-78
2023/08/31 05:42:21;;;;;;;12.10;8.98;;;16.20;99.90;;;;;;5000617;28;20054;-79
2023/08/31 05:44:49;;;;;;;14.38;10.77;;;16.20;99.90;;;;;;4996940;28;20046;-80
2023/08/31 05:47:16;;;;;;;11.25;9.65;;;16.20;99.90;;;;;;4998035;28;20148;-80
2023/08/31 05:49:44;;;;;;;15.00;8.65;;;16.30;99.90;;;;;;4996803;28;20085;-78
2023/08/31 05:52:13;;;;;;;12.88;9.68;;;16.20;99.90;;;;;;4995151;28;20097;-78
2023/08/31 05:54:40;;;;;;;21.48;11.85;;;16.40;99.90;;;;;;5014316;28;20065;-78
2023/08/31 05:57:08;;;;;;;26.42;19.58;;;16.50;99.90;;;;;;4994199;28;20442;-77
2023/08/31 05:59:35;;;;;;;13.63;10.00;;;16.70;99.90;;;;;;4997160;28;20038;-79
2023/08/31 06:02:04;;;;;;;8.52;7.05;;;16.80;99.90;;;;;;4996159;28;20038;-77
2023/08/31 06:04:32;;;;;;;8.40;7.05;;;16.90;99.90;;;;;;4995610;28;20045;-78
2023/08/31 06:06:59;;;;;;;9.32;6.68;;;16.90;99.90;;;;;;4994928;28;20787;-78
2023/08/31 06:09:28;;;;;;;12.52;9.85;;;17.00;99.90;;;;;;4996634;28;20051;-79
2023/08/31 06:11:56;;;;;;;10.82;9.43;;;17.10;99.90;;;;;;4998778;28;20045;-79
2023/08/31 06:14:23;;;;;;;23.80;17.73;;;17.10;99.90;;;;;;4997643;28;20144;-77
2023/08/31 06:16:52;;;;;;;22.48;15.40;;;17.10;99.90;;;;;;5006824;28;20118;-78
2023/08/31 06:19:20;;;;;;;11.93;8.88;;;17.10;99.90;;;;;;4999421;28;20070;-77
2023/08/31 06:21:48;;;;;;;10.88;5.95;;;17.10;99.90;;;;;;5001469;28;20042;-78
2023/08/31 06:24:15;;;;;;;11.98;8.10;;;17.00;99.90;;;;;;4999552;28;20093;-79
2023/08/31 06:26:45;;;;;;;8.30;5.55;;;17.10;99.90;;;;;;5000689;28;20096;-79
2023/08/31 06:29:12;;;;;;;8.00;5.65;;;17.00;99.90;;;;;;4998612;28;20042;-80
2023/08/31 06:31:40;;;;;;;13.80;10.02;;;17.10;99.90;;;;;;4999450;28;20516;-78
2023/08/31 06:34:07;;;;;;;10.93;5.93;;;17.30;99.90;;;;;;5001764;28;20097;-79
2023/08/31 06:36:35;;;;;;;7.72;5.35;;;17.50;99.90;;;;;;5004428;28;20050;-79
2023/08/31 06:39:24;;;;;;;9.68;6.60;;;17.90;99.90;;;;;;5024150;28;20578;-78
2023/08/31 06:41:57;;;;;;;16.00;9.48;;;18.20;99.90;;;;;;5004763;28;20049;-77
2023/08/31 06:44:31;;;;;;;9.73;6.60;;;18.60;99.90;;;;;;4998906;28;20197;-79
2023/08/31 06:46:59;;;;;;;8.77;4.82;;;18.90;99.90;;;;;;5004251;28;20137;-77
2023/08/31 06:49:27;;;;;;;9.65;6.90;;;19.20;99.90;;;;;;5001796;28;20117;-78
2023/08/31 06:51:55;;;;;;;7.20;5.18;;;19.50;99.90;;;;;;5004667;28;20044;-79
2023/08/31 06:54:22;;;;;;;6.80;4.28;;;19.80;99.90;;;;;;5000584;28;20065;-81
2023/08/31 06:56:53;;;;;;;8.80;5.38;;;19.90;99.90;;;;;;5002746;28;20042;-77
2023/08/31 06:59:22;;;;;;;9.43;4.30;;;19.90;99.90;;;;;;5004567;28;20046;-80
2023/08/31 07:01:49;;;;;;;7.35;3.70;;;19.90;99.90;;;;;;5000460;28;20103;-79
2023/08/31 07:04:20;;;;;;;10.88;3.75;;;20.00;99.90;;;;;;5026937;28;20042;-77
2023/08/31 07:06:47;;;;;;;6.00;3.03;;;20.10;99.90;;;;;;5016618;28;20417;-79
2023/08/31 07:09:16;;;;;;;8.20;4.80;;;20.10;99.90;;;;;;5000101;28;20513;-79
2023/08/31 07:11:43;;;;;;;12.43;8.82;;;20.00;99.90;;;;;;5016139;28;20038;-80
2023/08/31 07:14:11;;;;;;;8.00;5.43;;;20.20;99.90;;;;;;5001021;28;20096;-79
2023/08/31 07:16:40;;;;;;;5.45;3.38;;;20.50;99.90;;;;;;5001832;28;20078;-79
2023/08/31 07:19:08;;;;;;;7.60;3.78;;;20.80;99.90;;;;;;5000218;28;20523;-80
2023/08/31 07:21:36;;;;;;;5.88;3.25;;;21.10;99.90;;;;;;4998322;28;20038;-81
2023/08/31 07:24:04;;;;;;;6.63;3.30;;;21.20;99.90;;;;;;5026311;28;20034;-80
2023/08/31 07:26:32;;;;;;;10.15;4.53;;;21.30;99.90;;;;;;5003948;28;20122;-80
2023/08/31 07:29:00;;;;;;;10.63;4.65;;;21.10;99.90;;;;;;4998537;28;20037;-80
2023/08/31 07:31:27;;;;;;;7.55;3.85;;;21.00;99.90;;;;;;5023294;28;20430;-80
2023/08/31 07:33:58;;;;;;;10.38;3.85;;;20.90;99.90;;;;;;5003651;28;20806;-78
2023/08/31 07:36:29;;;;;;;9.45;6.63;;;21.10;99.90;;;;;;5009866;28;20046;-77
2023/08/31 07:38:58;;;;;;;10.20;5.13;;;21.30;99.90;;;;;;5003136;28;20140;-79
2023/08/31 07:41:26;;;;;;;11.68;4.63;;;21.30;99.90;;;;;;4996486;28;20041;-80
2023/08/31 07:43:54;;;;;;;8.60;4.50;;;21.20;99.90;;;;;;5000503;28;20509;-79
2023/08/31 07:46:21;;;;;;;9.52;4.55;;;21.10;99.90;;;;;;4998952;28;20057;-79
2023/08/31 07:48:50;;;;;;;10.88;4.00;;;21.20;99.90;;;;;;4996821;28;20107;-79
2023/08/31 07:51:23;;;;;;;10.57;4.53;;;21.30;99.90;;;;;;5020204;28;20537;-78
2023/08/31 07:53:50;;;;;;;10.45;4.40;;;21.50;99.90;;;;;;4996836;28;20141;-78
2023/08/31 07:56:18;;;;;;;9.65;3.35;;;21.60;99.90;;;;;;5002683;28;20070;-79
2023/08/31 07:58:46;;;;;;;6.93;4.20;;;21.70;99.90;;;;;;5001959;28;20046;-78
2023/08/31 08:01:13;;;;;;;6.75;3.75;;;21.90;99.90;;;;;;5028005;28;20403;-79
2023/08/31 08:03:41;;;;;;;8.65;3.65;;;22.10;99.90;;;;;;5018748;28;20050;-80
2023/08/31 08:06:08;;;;;;;8.63;6.35;;;21.90;99.90;;;;;;5019706;28;20068;-80
2023/08/31 08:08:37;;;;;;;6.25;4.03;;;21.90;99.90;;;;;;5004409;28;20126;-79
2023/08/31 08:11:06;;;;;;;10.23;5.38;;;21.80;99.90;;;;;;5022548;28;20049;-80
2023/08/31 08:13:33;;;;;;;11.65;5.90;;;21.70;99.90;;;;;;5051450;28;20046;-80
2023/08/31 08:16:01;;;;;;;12.55;7.22;;;21.70;99.90;;;;;;5023281;28;20037;-77
2023/08/31 08:18:28;;;;;;;14.80;7.53;;;21.70;99.90;;;;;;5023445;28;20120;-78
2023/08/31 08:21:02;;;;;;;21.58;11.90;;;21.60;99.90;;;;;;5022322;28;20045;-78
2023/08/31 08:23:29;;;;;;;18.55;11.50;;;21.80;99.90;;;;;;5032639;28;20042;-79
2023/08/31 08:26:00;;;;;;;22.00;13.77;;;21.80;99.90;;;;;;5005042;28;20038;-79
2023/08/31 08:28:30;;;;;;;23.42;16.67;;;22.00;99.90;;;;;;5019727;28;20715;-78
2023/08/31 08:30:58;;;;;;;23.67;16.08;;;22.10;99.90;;;;;;4999941;28;20031;-80
2023/08/31 08:33:26;;;;;;;23.45;15.90;;;22.20;99.90;;;;;;5010908;28;20077;-78
2023/08/31 08:35:56;;;;;;;23.42;18.02;;;22.20;99.90;;;;;;5003015;28;20088;-79
2023/08/31 08:38:24;;;;;;;23.33;16.13;;;22.00;99.90;;;;;;5029391;28;20077;-78
2023/08/31 08:40:54;;;;;;;18.23;13.80;;;21.80;99.90;;;;;;5004769;28;20112;-79
2023/08/31 08:43:27;;;;;;;24.63;14.35;;;21.70;99.90;;;;;;5003120;28;20066;-77
2023/08/31 08:45:55;;;;;;;17.63;12.82;;;21.80;99.90;;;;;;5003611;28;20066;-80
2023/08/31 08:48:28;;;;;;;22.88;14.93;;;22.00;99.90;;;;;;5004344;28;20031;-78
2023/08/31 08:50:57;;;;;;;40.88;15.70;;;22.30;99.90;;;;;;5019898;28;20234;-79
2023/08/31 08:53:24;;;;;;;28.05;16.27;;;22.60;99.90;;;;;;5006513;28;20103;-79
2023/08/31 08:55:52;;;;;;;18.95;13.38;;;23.00;99.90;;;;;;5004342;28;20508;-77
2023/08/31 08:58:20;;;;;;;16.83;13.73;;;23.50;99.90;;;;;;5004432;28;20107;-78
2023/08/31 09:00:50;;;;;;;22.15;12.45;;;24.00;99.90;;;;;;5005945;28;20041;-79
2023/08/31 09:03:17;;;;;;;13.90;10.27;;;24.10;99.90;;;;;;5006530;28;20050;-79
2023/08/31 09:05:46;;;;;;;12.05;8.27;;;24.30;99.90;;;;;;5004660;28;20089;-78
2023/08/31 09:08:15;;;;;;;11.43;8.60;;;24.50;99.90;;;;;;5001312;28;20054;-78
2023/08/31 09:10:44;;;;;;;11.07;7.60;;;24.60;99.90;;;;;;4999178;28;20096;-79
2023/08/31 09:13:15;;;;;;;8.60;5.35;;;24.70;99.90;;;;;;5004569;28;20518;-80
2023/08/31 09:15:46;;;;;;;9.57;6.60;;;24.60;99.90;;;;;;5007724;28;20046;-81
2023/08/31 09:18:24;;;;;;;8.45;4.15;;;24.60;99.90;;;;;;5000214;28;20045;-80
2023/08/31 09:20:53;;;;;;;9.98;4.65;;;24.60;99.90;;;;;;5001731;28;20502;-79
2023/08/31 09:23:22;;;;;;;10.02;5.63;;;24.70;99.90;;;;;;5001858;28;20105;-80
2023/08/31 09:25:50;;;;;;;10.18;5.35;;;24.70;99.90;;;;;;5000700;28;20042;-79
2023/08/31 09:28:20;;;;;;;10.90;5.07;;;24.80;99.90;;;;;;5004333;28;20104;-79
2023/08/31 09:30:50;;;;;;;19.35;9.43;;;24.70;99.90;;;;;;5015367;28;20161;-78
2023/08/31 09:33:22;;;;;;;20.42;7.53;;;24.70;99.90;;;;;;5026486;28;20153;-81
2023/08/31 09:35:51;;;;;;;12.80;6.57;;;24.80;99.90;;;;;;5001777;28;20050;-79
2023/08/31 09:38:19;;;;;;;12.05;5.22;;;24.80;99.90;;;;;;5002967;28;20052;-78
2023/08/31 09:40:47;;;;;;;11.73;5.82;;;24.90;99.90;;;;;;5002011;28;20042;-80
2023/08/31 09:43:21;;;;;;;9.35;4.50;;;24.90;99.90;;;;;;5024192;28;20193;-80
2023/08/31 09:45:49;;;;;;;9.73;4.05;;;24.90;99.90;;;;;;5025646;28;20650;-78
2023/08/31 09:48:18;;;;;;;9.32;3.83;;;25.00;99.90;;;;;;4996313;28;20043;-80
2023/08/31 09:50:47;;;;;;;12.85;4.75;;;25.10;99.90;;;;;;4999386;28;20034;-80
2023/08/31 09:53:17;;;;;;;9.57;5.05;;;25.10;99.90;;;;;;5025193;28;20098;-78
2023/08/31 09:55:47;;;;;;;13.23;3.97;;;25.10;99.90;;;;;;4995878;28;20048;-80
2023/08/31 09:58:19;;;;;;;7.35;2.75;;;25.20;99.90;;;;;;4997367;28;20049;-80
2023/08/31 10:00:47;;;;;;;8.60;3.50;;;25.10;99.90;;;;;;5001345;28;20657;-78
2023/08/31 10:03:15;;;;;;;10.27;4.90;;;25.10;99.90;;;;;;5000236;28;20148;-80
2023/08/31 10:05:46;;;;;;;6.82;3.65;;;25.20;99.90;;;;;;4996398;28;20042;-80
2023/08/31 10:08:15;;;;;;;13.27;6.40;;;25.30;99.90;;;;;;5015377;28;20046;-79
2023/08/31 10:10:43;;;;;;;6.57;3.42;;;25.40;99.90;;;;;;5023481;28;20062;-79
2023/08/31 10:13:12;;;;;;;8.73;4.15;;;25.50;99.90;;;;;;4999730;28;20034;-78
2023/08/31 10:15:39;;;;;;;4.82;3.40;;;25.40;99.90;;;;;;5017840;28;20046;-79
2023/08/31 10:18:08;;;;;;;8.07;3.30;;;25.40;99.90;;;;;;4998408;28;20125;-78
2023/08/31 10:20:36;;;;;;;5.05;2.80;;;25.60;99.90;;;;;;5003884;28;20798;-78
2023/08/31 10:23:07;;;;;;;8.30;4.03;;;25.60;99.90;;;;;;5026857;28;20086;-79
2023/08/31 10:26:07;;;;;;;8.23;4.72;;;25.60;99.90;;;;;;5004850;28;20583;-80
2023/08/31 10:28:42;;;;;;;13.68;8.82;;;25.50;99.90;;;;;;5024964;28;20085;-80
2023/08/31 10:31:11;;;;;;;8.20;3.10;;;25.60;99.90;;;;;;5014463;28;20060;-81
2023/08/31 10:33:42;;;;;;;6.25;3.03;;;25.60;99.90;;;;;;5001019;28;20350;-80
2023/08/31 10:36:17;;;;;;;5.55;3.20;;;25.60;99.90;;;;;;5013498;28;20161;-80
2023/08/31 10:39:00;;;;;;;5.97;3.28;;;25.50;99.90;;;;;;4997512;28;20109;-80
2023/08/31 10:41:36;;;;;;;9.60;6.88;;;25.40;99.90;;;;;;4998709;28;20062;-80
2023/08/31 10:44:18;;;;;;;8.38;3.45;;;25.50;99.90;;;;;;4997434;28;20034;-79
2023/08/31 10:46:46;;;;;;;7.13;3.60;;;25.50;99.90;;;;;;5014374;28;20093;-80
2023/08/31 10:49:17;;;;;;;7.75;4.72;;;25.60;99.90;;;;;;5001779;28;20050;-80
2023/08/31 10:51:46;;;;;;;6.75;3.15;;;25.70;99.90;;;;;;5024833;28;20046;-78
2023/08/31 10:54:23;;;;;;;5.72;2.90;;;25.70;99.90;;;;;;5001286;28;20069;-81
2023/08/31 10:57:04;;;;;;;16.33;5.28;;;25.80;99.90;;;;;;5000440;28;20041;-80
2023/08/31 10:59:46;;;;;;;7.10;3.97;;;25.70;99.90;;;;;;5022570;28;20042;-78
2023/08/31 11:02:29;;;;;;;7.28;3.25;;;25.80;99.90;;;;;;4996738;28;20050;-80
2023/08/31 11:05:00;;;;;;;5.43;2.78;;;26.00;99.90;;;;;;4998221;28;20127;-79
2023/08/31 11:07:29;;;;;;;6.35;2.53;;;26.30;99.90;;;;;;4999317;28;20053;-79
2023/08/31 11:10:16;;;;;;;5.22;2.10;;;26.40;99.90;;;;;;4998599;28;20100;-81
2023/08/31 11:12:45;;;;;;;5.90;2.85;;;26.70;99.90;;;;;;5004065;28;20093;-79
2023/08/31 11:15:14;;;;;;;7.78;4.25;;;26.90;99.90;;;;;;5003151;28;20708;-78
2023/08/31 11:17:42;;;;;;;11.40;6.15;;;26.80;99.90;;;;;;5002203;28;20160;-80
2023/08/31 11:20:13;;;;;;;9.05;3.80;;;26.80;99.90;;;;;;5004674;28;20235;-78
2023/08/31 11:22:42;;;;;;;21.42;15.52;;;26.90;99.90;;;;;;4999185;28;20557;-80
2023/08/31 11:25:14;;;;;;;5.88;3.78;;;26.90;99.90;;;;;;4999318;28;21377;-79
2023/08/31 11:27:41;;;;;;;8.07;4.95;;;27.00;99.90;;;;;;5025202;28;20026;-79
2023/08/31 11:30:19;;;;;;;6.70;4.75;;;27.10;99.90;;;;;;5021419;28;20077;-80
2023/08/31 11:32:47;;;;;;;7.57;4.03;;;27.30;99.90;;;;;;5017246;28;20038;-77
2023/08/31 11:35:16;;;;;;;6.93;3.63;;;27.40;99.90;;;;;;5002423;28;20120;-78
2023/08/31 11:37:44;;;;;;;7.00;3.33;;;27.50;99.90;;;;;;4999408;28;20048;-78
2023/08/31 11:40:16;;;;;;;8.30;4.07;;;27.60;99.90;;;;;;5007884;28;20049;-79
2023/08/31 11:42:44;;;;;;;9.82;4.20;;;27.60;99.90;;;;;;5016772;28;20042;-78
2023/08/31 11:45:13;;;;;;;8.55;4.88;;;27.70;99.90;;;;;;4998881;28;20406;-78
2023/08/31 11:47:42;;;;;;;6.97;4.40;;;27.60;99.90;;;;;;4998000;28;20078;-80
2023/08/31 11:50:11;;;;;;;8.82;4.50;;;27.50;99.90;;;;;;4998473;28;20073;-78
2023/08/31 11:52:39;;;;;;;7.05;5.05;;;27.50;99.90;;;;;;4998513;28;20490;-79
2023/08/31 11:55:13;;;;;;;10.90;6.25;;;27.60;99.90;;;;;;5002513;28;20031;-79
2023/08/31 11:57:48;;;;;;;8.80;5.53;;;27.60;99.90;;;;;;5023577;28;20045;-80
2023/08/31 12:00:19;;;;;;;12.13;6.35;;;27.50;99.90;;;;;;5014230;28;20046;-78
2023/08/31 12:02:49;;;;;;;10.10;4.85;;;27.40;99.90;;;;;;5014547;28;20046;-79
2023/08/31 12:05:16;;;;;;;7.32;4.47;;;27.30;99.90;;;;;;5000453;28;20050;-79
2023/08/31 12:07:46;;;;;;;10.07;4.45;;;26.90;99.90;;;;;;5003270;28;20046;-77
2023/08/31 12:10:16;;;;;;;8.45;4.93;;;27.10;99.90;;;;;;5024601;28;20521;-80
2023/08/31 12:12:45;;;;;;;7.85;3.90;;;27.20;99.90;;;;;;4997887;28;20058;-79
2023/08/31 12:15:12;;;;;;;7.95;4.57;;;27.20;99.90;;;;;;4994881;28;20042;-78
2023/08/31 12:17:40;;;;;;;7.13;4.32;;;27.40;99.90;;;;;;4997518;28;20076;-78
2023/08/31 12:20:09;;;;;;;8.55;4.18;;;27.50;99.90;;;;;;5010491;28;20053;-77
2023/08/31 12:22:37;;;;;;;7.28;3.83;;;27.70;99.90;;;;;;4996817;28;20125;-79
2023/08/31 12:25:05;;;;;;;7.93;4.60;;;27.70;99.90;;;;;;4995253;28;20034;-78
2023/08/31 12:27:33;;;;;;;5.80;3.35;;;27.60;99.90;;;;;;4997966;28;20124;-78
2023/08/31 12:30:03;;;;;;;9.40;3.63;;;27.30;99.90;;;;;;5019899;28;20461;-76
2023/08/31 12:32:31;;;;;;;7.00;3.60;;;27.10;99.90;;;;;;4997253;28;20042;-79
2023/08/31 12:34:58;;;;;;;7.22;3.15;;;26.70;99.90;;;;;;4999272;28;20280;-78
2023/08/31 12:37:26;;;;;;;5.55;2.90;;;26.40;99.90;;;;;;5001995;28;20038;-77
2023/08/31 12:39:53;;;;;;;5.03;2.53;;;26.20;99.90;;;;;;5005667;28;20042;-79
2023/08/31 12:42:21;;;;;;;10.45;4.07;;;26.10;99.90;;;;;;4999010;28;20073;-78
2023/08/31 12:44:48;;;;;;;5.95;3.88;;;26.30;99.90;;;;;;5015309;28;20371;-78
2023/08/31 12:47:17;;;;;;;6.28;4.22;;;26.40;99.90;;;;;;5000103;28;20045;-77